sensor_id;sensor_type;location;lat;lon;timestamp;temperature;humidity
21622;DHT22;10973;46.706;12.340;2023-12-29T00:01:45;-0.90;99.90
21622;DHT22;10973;46.706;12.340;2023-12-29T00:04:13;-1.00;99.90
21622;DHT22;10973;46.706;12.340;2023-12-29T00:06:41;-0.90;99.90
21622;DHT22;10973;46.706;12.340;2023-12-29T00:09:23;-0.90;99.90
21622;DHT22;10973;46.706;12.340;2023-12-29T00:11:51;-1.00;99.90
21622;DHT22;10973;46.706;12.340;2023-12-29T00:14:19;-1.00;99.90
21622;DHT22;10973;46.706;12.340;2023-12-29T00:16:47;-1.10;99.90
21622;DHT22;10973;46.706;12.340;2023-12-29T00:19:14;-1.20;99.90
21622;DHT22;10973;46.706;12.340;2023-12-29T00:21:43;-1.20;99.90
21622;DHT22;10973;46.706;12.340;2023-12-29T00:24:11;-1.30;99.90
21622;DHT22;10973;46.706;12.340;2023-12-29T00:26:38;-1.30;99.90
21622;DHT22;10973;46.706;12.340;2023-12-29T00:29:07;-1.30;99.90
21622;DHT22;10973;46.706;12.340;2023-12-29T00:31:35;-1.40;99.90
21622;DHT22;10973;46.706;12.340;2023-12-29T00:34:03;-1.40;99.90
21622;DHT22;10973;46.706;12.340;2023-12-29T00:36:31;-1.40;99.90
21622;DHT22;10973;46.706;12.340;2023-12-29T00:38:58;-1.50;99.90
21622;DHT22;10973;46.706;12.340;2023-12-29T00:41:26;-1.50;99.90
21622;DHT22;10973;46.706;12.340;2023-12-29T00:43:53;-1.60;99.90
21622;DHT22;10973;46.706;12.340;2023-12-29T00:46:21;-1.50;99.90
21622;DHT22;10973;46.706;12.340;2023-12-29T00:48:48;-1.50;99.90
21622;DHT22;10973;46.706;12.340;2023-12-29T00:51:16;-1.50;99.90
21622;DHT22;10973;46.706;12.340;2023-12-29T00:53:44;-1.60;99.90
21622;DHT22;10973;46.706;12.340;2023-12-29T00:56:12;-1.60;99.90
21622;DHT22;10973;46.706;12.340;2023-12-29T00:58:40;-1.60;99.90
21622;DHT22;10973;46.706;12.340;2023-12-29T01:01:08;-1.50;99.90
21622;DHT22;10973;46.706;12.340;2023-12-29T01:03:36;-1.50;99.90
21622;DHT22;10973;46.706;12.340;2023-12-29T01:06:04;-1.50;99.90
21622;DHT22;10973;46.706;12.340;2023-12-29T01:08:31;-1.50;99.90
21622;DHT22;10973;46.706;12.340;2023-12-29T01:10:59;-1.60;99.90
21622;DHT22;10973;46.706;12.340;2023-12-29T01:13:26;-1.60;99.90
21622;DHT22;10973;46.706;12.340;2023-12-29T01:15:54;-1.60;99.90
21622;DHT22;10973;46.706;12.340;2023-12-29T01:18:21;-1.60;99.90
21622;DHT22;10973;46.706;12.340;2023-12-29T01:20:49;-1.50;99.90
21622;DHT22;10973;46.706;12.340;2023-12-29T01:23:17;-1.50;99.90
21622;DHT22;10973;46.706;12.340;2023-12-29T01:25:44;-1.60;99.90
21622;DHT22;10973;46.706;12.340;2023-12-29T01:28:12;-1.70;99.90
21622;DHT22;10973;46.706;12.340;2023-12-29T01:30:40;-1.70;99.90
21622;DHT22;10973;46.706;12.340;2023-12-29T01:33:07;-1.80;99.90
21622;DHT22;10973;46.706;12.340;2023-12-29T01:35:35;-1.70;99.90
21622;DHT22;10973;46.706;12.340;2023-12-29T01:38:03;-1.70;99.90
21622;DHT22;10973;46.706;12.340;2023-12-29T01:40:31;-1.80;99.90
21622;DHT22;10973;46.706;12.340;2023-12-29T01:42:58;-1.80;99.90
21622;DHT22;10973;46.706;12.340;2023-12-29T01:45:26;-1.80;99.90
21622;DHT22;10973;46.706;12.340;2023-12-29T01:47:54;-1.70;99.90
21622;DHT22;10973;46.706;12.340;2023-12-29T01:50:22;-1.70;99.90
21622;DHT22;10973;46.706;12.340;2023-12-29T01:52:50;-1.70;99.90
21622;DHT22;10973;46.706;12.340;2023-12-29T01:55:20;-1.70;99.90
21622;DHT22;10973;46.706;12.340;2023-12-29T01:57:53;-1.70;99.90
21622;DHT22;10973;46.706;12.340;2023-12-29T02:00:22;-1.60;99.90
21622;DHT22;10973;46.706;12.340;2023-12-29T02:02:51;-1.50;99.90
21622;DHT22;10973;46.706;12.340;2023-12-29T02:05:20;-1.50;99.90
21622;DHT22;10973;46.706;12.340;2023-12-29T02:07:52;-1.50;99.90
21622;DHT22;10973;46.706;12.340;2023-12-29T02:10:20;-1.50;99.90
21622;DHT22;10973;46.706;12.340;2023-12-29T02:12:50;-1.50;99.90
21622;DHT22;10973;46.706;12.340;2023-12-29T02:15:18;-1.50;99.90
21622;DHT22;10973;46.706;12.340;2023-12-29T02:17:50;-1.60;99.90
21622;DHT22;10973;46.706;12.340;2023-12-29T02:20:22;-1.70;99.90
21622;DHT22;10973;46.706;12.340;2023-12-29T02:22:50;-1.70;99.90
21622;DHT22;10973;46.706;12.340;2023-12-29T02:25:17;-1.70;99.90
21622;DHT22;10973;46.706;12.340;2023-12-29T02:28:13;-1.70;99.90
21622;DHT22;10973;46.706;12.340;2023-12-29T02:31:01;-1.70;99.90
21622;DHT22;10973;46.706;12.340;2023-12-29T02:33:40;-1.80;99.90
21622;DHT22;10973;46.706;12.340;2023-12-29T02:36:11;-1.80;99.90
21622;DHT22;10973;46.706;12.340;2023-12-29T02:38:41;-1.90;99.90
21622;DHT22;10973;46.706;12.340;2023-12-29T02:41:10;-1.90;99.90
21622;DHT22;10973;46.706;12.340;2023-12-29T02:43:38;-1.90;99.90
21622;DHT22;10973;46.706;12.340;2023-12-29T02:46:06;-1.90;99.90
21622;DHT22;10973;46.706;12.340;2023-12-29T02:48:34;-1.90;99.90
21622;DHT22;10973;46.706;12.340;2023-12-29T02:51:01;-1.90;99.90
21622;DHT22;10973;46.706;12.340;2023-12-29T02:53:29;-1.80;99.90
21622;DHT22;10973;46.706;12.340;2023-12-29T02:55:57;-1.80;99.90
21622;DHT22;10973;46.706;12.340;2023-12-29T02:58:24;-1.80;99.90
21622;DHT22;10973;46.706;12.340;2023-12-29T03:00:52;-1.80;99.90
21622;DHT22;10973;46.706;12.340;2023-12-29T03:03:19;-1.80;99.90
21622;DHT22;10973;46.706;12.340;2023-12-29T03:05:47;-1.80;99.90
21622;DHT22;10973;46.706;12.340;2023-12-29T03:08:15;-1.80;99.90
21622;DHT22;10973;46.706;12.340;2023-12-29T03:10:42;-1.90;99.90
21622;DHT22;10973;46.706;12.340;2023-12-29T03:13:11;-1.80;99.90
21622;DHT22;10973;46.706;12.340;2023-12-29T03:15:38;-2.00;99.90
21622;DHT22;10973;46.706;12.340;2023-12-29T03:18:06;-2.00;99.90
21622;DHT22;10973;46.706;12.340;2023-12-29T03:20:34;-2.00;99.90
21622;DHT22;10973;46.706;12.340;2023-12-29T03:23:01;-1.90;99.90
21622;DHT22;10973;46.706;12.340;2023-12-29T03:25:28;-1.80;99.90
21622;DHT22;10973;46.706;12.340;2023-12-29T03:27:56;-1.80;99.90
21622;DHT22;10973;46.706;12.340;2023-12-29T03:30:24;-1.70;99.90
21622;DHT22;10973;46.706;12.340;2023-12-29T03:32:51;-1.60;99.90
21622;DHT22;10973;46.706;12.340;2023-12-29T03:35:19;-1.60;99.90
21622;DHT22;10973;46.706;12.340;2023-12-29T03:37:46;-1.60;99.90
21622;DHT22;10973;46.706;12.340;2023-12-29T03:40:14;-1.60;99.90
21622;DHT22;10973;46.706;12.340;2023-12-29T03:42:41;-1.70;99.90
21622;DHT22;10973;46.706;12.340;2023-12-29T03:45:10;-1.80;99.90
21622;DHT22;10973;46.706;12.340;2023-12-29T03:47:37;-1.90;99.90
21622;DHT22;10973;46.706;12.340;2023-12-29T03:50:05;-1.90;99.90
21622;DHT22;10973;46.706;12.340;2023-12-29T03:52:33;-1.90;99.90
21622;DHT22;10973;46.706;12.340;2023-12-29T03:55:04;-1.90;99.90
21622;DHT22;10973;46.706;12.340;2023-12-29T03:57:32;-1.90;99.90
21622;DHT22;10973;46.706;12.340;2023-12-29T04:00:00;-1.90;99.90
21622;DHT22;10973;46.706;12.340;2023-12-29T04:02:28;-1.90;99.90
21622;DHT22;10973;46.706;12.340;2023-12-29T04:04:56;-1.90;99.90
21622;DHT22;10973;46.706;12.340;2023-12-29T04:07:24;-1.90;99.90
21622;DHT22;10973;46.706;12.340;2023-12-29T04:09:51;-1.90;99.90
21622;DHT22;10973;46.706;12.340;2023-12-29T04:12:19;-1.90;99.90
21622;DHT22;10973;46.706;12.340;2023-12-29T04:14:46;-1.90;99.90
21622;DHT22;10973;46.706;12.340;2023-12-29T04:17:14;-1.80;99.90
21622;DHT22;10973;46.706;12.340;2023-12-29T04:19:42;-1.80;99.90
21622;DHT22;10973;46.706;12.340;2023-12-29T04:22:10;-1.80;99.90
21622;DHT22;10973;46.706;12.340;2023-12-29T04:24:37;-1.90;99.90
21622;DHT22;10973;46.706;12.340;2023-12-29T04:27:05;-1.90;99.90
21622;DHT22;10973;46.706;12.340;2023-12-29T04:29:32;-2.00;99.90
21622;DHT22;10973;46.706;12.340;2023-12-29T04:32:00;-2.00;99.90
21622;DHT22;10973;46.706;12.340;2023-12-29T04:34:27;-2.00;99.90
21622;DHT22;10973;46.706;12.340;2023-12-29T04:36:55;-2.00;99.90
21622;DHT22;10973;46.706;12.340;2023-12-29T04:39:22;-2.00;99.90
21622;DHT22;10973;46.706;12.340;2023-12-29T04:41:50;-2.00;99.90
21622;DHT22;10973;46.706;12.340;2023-12-29T04:44:18;-2.10;99.90
21622;DHT22;10973;46.706;12.340;2023-12-29T04:46:45;-2.10;99.90
21622;DHT22;10973;46.706;12.340;2023-12-29T04:49:13;-2.00;99.90
21622;DHT22;10973;46.706;12.340;2023-12-29T04:51:40;-2.00;99.90
21622;DHT22;10973;46.706;12.340;2023-12-29T04:54:08;-2.00;99.90
21622;DHT22;10973;46.706;12.340;2023-12-29T04:56:36;-1.90;99.90
21622;DHT22;10973;46.706;12.340;2023-12-29T04:59:03;-1.90;99.90
21622;DHT22;10973;46.706;12.340;2023-12-29T05:01:31;-1.90;99.90
21622;DHT22;10973;46.706;12.340;2023-12-29T05:03:58;-1.90;99.90
21622;DHT22;10973;46.706;12.340;2023-12-29T05:06:26;-2.00;99.90
21622;DHT22;10973;46.706;12.340;2023-12-29T05:08:54;-2.10;99.90
21622;DHT22;10973;46.706;12.340;2023-12-29T05:11:21;-2.10;99.90
21622;DHT22;10973;46.706;12.340;2023-12-29T05:13:49;-2.10;99.90
21622;DHT22;10973;46.706;12.340;2023-12-29T05:16:16;-2.20;99.90
21622;DHT22;10973;46.706;12.340;2023-12-29T05:18:44;-2.20;99.90
21622;DHT22;10973;46.706;12.340;2023-12-29T05:21:18;-2.20;99.90
21622;DHT22;10973;46.706;12.340;2023-12-29T05:23:46;-2.20;99.90
21622;DHT22;10973;46.706;12.340;2023-12-29T05:26:17;-2.20;99.90
21622;DHT22;10973;46.706;12.340;2023-12-29T05:28:44;-2.20;99.90
21622;DHT22;10973;46.706;12.340;2023-12-29T05:31:12;-2.20;99.90
21622;DHT22;10973;46.706;12.340;2023-12-29T05:33:39;-2.10;99.90
21622;DHT22;10973;46.706;12.340;2023-12-29T05:36:09;-2.20;99.90
21622;DHT22;10973;46.706;12.340;2023-12-29T05:38:37;-2.20;99.90
21622;DHT22;10973;46.706;12.340;2023-12-29T05:41:05;-2.20;99.90
21622;DHT22;10973;46.706;12.340;2023-12-29T05:43:33;-2.20;99.90
21622;DHT22;10973;46.706;12.340;2023-12-29T05:46:01;-2.30;99.90
21622;DHT22;10973;46.706;12.340;2023-12-29T05:48:29;-2.40;99.90
21622;DHT22;10973;46.706;12.340;2023-12-29T05:50:56;-2.30;99.90
21622;DHT22;10973;46.706;12.340;2023-12-29T05:53:24;-2.30;99.90
21622;DHT22;10973;46.706;12.340;2023-12-29T05:55:52;-2.30;99.90
21622;DHT22;10973;46.706;12.340;2023-12-29T05:58:19;-2.30;99.90
21622;DHT22;10973;46.706;12.340;2023-12-29T06:00:46;-2.10;99.90
21622;DHT22;10973;46.706;12.340;2023-12-29T06:03:14;-2.40;99.90
21622;DHT22;10973;46.706;12.340;2023-12-29T06:05:42;-2.40;99.90
21622;DHT22;10973;46.706;12.340;2023-12-29T06:08:11;-2.40;99.90
21622;DHT22;10973;46.706;12.340;2023-12-29T06:10:39;-2.40;99.90
21622;DHT22;10973;46.706;12.340;2023-12-29T06:13:07;-2.50;99.90
21622;DHT22;10973;46.706;12.340;2023-12-29T06:15:34;-2.50;99.90
21622;DHT22;10973;46.706;12.340;2023-12-29T06:18:02;-2.60;99.90
21622;DHT22;10973;46.706;12.340;2023-12-29T06:20:31;-2.70;99.90
21622;DHT22;10973;46.706;12.340;2023-12-29T06:22:59;-2.70;99.90
21622;DHT22;10973;46.706;12.340;2023-12-29T06:25:27;-2.70;99.90
21622;DHT22;10973;46.706;12.340;2023-12-29T06:27:54;-2.60;99.90
21622;DHT22;10973;46.706;12.340;2023-12-29T06:30:22;-2.70;99.90
21622;DHT22;10973;46.706;12.340;2023-12-29T06:32:50;-2.70;99.90
21622;DHT22;10973;46.706;12.340;2023-12-29T06:35:17;-2.70;99.90
21622;DHT22;10973;46.706;12.340;2023-12-29T06:37:45;-2.80;99.90
21622;DHT22;10973;46.706;12.340;2023-12-29T06:40:12;-2.80;99.90
21622;DHT22;10973;46.706;12.340;2023-12-29T06:42:40;-2.80;99.90
21622;DHT22;10973;46.706;12.340;2023-12-29T06:45:08;-2.80;99.90
21622;DHT22;10973;46.706;12.340;2023-12-29T06:47:36;-2.80;99.90
21622;DHT22;10973;46.706;12.340;2023-12-29T06:50:04;-2.80;99.90
21622;DHT22;10973;46.706;12.340;2023-12-29T06:52:32;-2.90;99.90
21622;DHT22;10973;46.706;12.340;2023-12-29T06:55:01;-2.90;99.90
21622;DHT22;10973;46.706;12.340;2023-12-29T06:57:29;-2.90;99.90
21622;DHT22;10973;46.706;12.340;2023-12-29T06:59:56;-2.90;99.90
21622;DHT22;10973;46.706;12.340;2023-12-29T07:02:24;-2.90;99.90
21622;DHT22;10973;46.706;12.340;2023-12-29T07:04:52;-3.00;99.90
21622;DHT22;10973;46.706;12.340;2023-12-29T07:07:19;-3.00;99.90
21622;DHT22;10973;46.706;12.340;2023-12-29T07:09:47;-3.00;99.90
21622;DHT22;10973;46.706;12.340;2023-12-29T07:12:14;-3.00;99.90
21622;DHT22;10973;46.706;12.340;2023-12-29T07:14:42;-2.90;99.90
21622;DHT22;10973;46.706;12.340;2023-12-29T07:17:10;-3.00;99.90
21622;DHT22;10973;46.706;12.340;2023-12-29T07:19:37;-3.00;99.90
21622;DHT22;10973;46.706;12.340;2023-12-29T07:22:06;-3.10;99.90
21622;DHT22;10973;46.706;12.340;2023-12-29T07:24:36;-3.30;99.90
21622;DHT22;10973;46.706;12.340;2023-12-29T07:27:04;-3.10;99.90
21622;DHT22;10973;46.706;12.340;2023-12-29T07:29:31;-3.00;99.90
21622;DHT22;10973;46.706;12.340;2023-12-29T07:31:59;-3.00;99.90
21622;DHT22;10973;46.706;12.340;2023-12-29T07:34:27;-3.00;99.90
21622;DHT22;10973;46.706;12.340;2023-12-29T07:36:54;-3.00;99.90
21622;DHT22;10973;46.706;12.340;2023-12-29T07:39:22;-3.00;99.90
21622;DHT22;10973;46.706;12.340;2023-12-29T07:41:50;-2.90;99.90
21622;DHT22;10973;46.706;12.340;2023-12-29T07:44:17;-2.90;99.90
21622;DHT22;10973;46.706;12.340;2023-12-29T07:46:45;-2.90;99.90
21622;DHT22;10973;46.706;12.340;2023-12-29T07:49:13;-2.80;99.90
21622;DHT22;10973;46.706;12.340;2023-12-29T07:51:41;-2.80;99.90
21622;DHT22;10973;46.706;12.340;2023-12-29T09:48:13;-2.70;99.90
21622;DHT22;10973;46.706;12.340;2023-12-29T09:50:44;0.30;99.90
21622;DHT22;10973;46.706;12.340;2023-12-29T09:53:14;0.30;99.90
21622;DHT22;10973;46.706;12.340;2023-12-29T09:55:42;0.30;99.90
21622;DHT22;10973;46.706;12.340;2023-12-29T09:58:12;0.40;99.90
21622;DHT22;10973;46.706;12.340;2023-12-29T10:00:42;0.50;99.90
21622;DHT22;10973;46.706;12.340;2023-12-29T10:03:10;0.50;99.90
21622;DHT22;10973;46.706;12.340;2023-12-29T10:05:37;0.70;99.90
21622;DHT22;10973;46.706;12.340;2023-12-29T10:08:07;0.70;99.90
21622;DHT22;10973;46.706;12.340;2023-12-29T10:10:39;0.80;99.90
21622;DHT22;10973;46.706;12.340;2023-12-29T10:13:10;0.90;99.90
21622;DHT22;10973;46.706;12.340;2023-12-29T10:15:49;1.00;99.90
21622;DHT22;10973;46.706;12.340;2023-12-29T10:18:41;1.10;99.90
21622;DHT22;10973;46.706;12.340;2023-12-29T10:23:54;1.20;99.90
21622;DHT22;10973;46.706;12.340;2023-12-29T10:26:33;1.30;99.90
21622;DHT22;10973;46.706;12.340;2023-12-29T10:29:02;1.40;99.90
21622;DHT22;10973;46.706;12.340;2023-12-29T10:31:30;1.50;99.90
21622;DHT22;10973;46.706;12.340;2023-12-29T10:34:17;1.60;99.90
21622;DHT22;10973;46.706;12.340;2023-12-29T10:36:49;1.70;99.90
21622;DHT22;10973;46.706;12.340;2023-12-29T10:39:17;1.80;99.90
21622;DHT22;10973;46.706;12.340;2023-12-29T10:41:44;1.80;99.90
21622;DHT22;10973;46.706;12.340;2023-12-29T10:44:12;1.90;99.90
21622;DHT22;10973;46.706;12.340;2023-12-29T10:46:40;2.00;99.90
21622;DHT22;10973;46.706;12.340;2023-12-29T10:49:08;2.10;99.90
21622;DHT22;10973;46.706;12.340;2023-12-29T10:51:40;2.20;99.90
21622;DHT22;10973;46.706;12.340;2023-12-29T10:54:07;2.30;99.90
21622;DHT22;10973;46.706;12.340;2023-12-29T10:56:35;2.40;99.90
21622;DHT22;10973;46.706;12.340;2023-12-29T10:59:06;2.40;99.90
21622;DHT22;10973;46.706;12.340;2023-12-29T11:01:35;2.50;99.90
21622;DHT22;10973;46.706;12.340;2023-12-29T11:04:05;2.50;99.90
21622;DHT22;10973;46.706;12.340;2023-12-29T11:06:43;2.60;99.90
21622;DHT22;10973;46.706;12.340;2023-12-29T11:09:11;2.60;99.90
21622;DHT22;10973;46.706;12.340;2023-12-29T11:11:39;2.70;99.90
21622;DHT22;10973;46.706;12.340;2023-12-29T11:14:10;2.70;99.90
21622;DHT22;10973;46.706;12.340;2023-12-29T11:16:38;2.70;99.90
21622;DHT22;10973;46.706;12.340;2023-12-29T11:19:11;2.80;99.90
21622;DHT22;10973;46.706;12.340;2023-12-29T11:21:40;2.90;99.90
21622;DHT22;10973;46.706;12.340;2023-12-29T11:24:10;2.90;99.90
21622;DHT22;10973;46.706;12.340;2023-12-29T11:26:40;3.10;99.90
21622;DHT22;10973;46.706;12.340;2023-12-29T11:29:11;3.50;99.90
21622;DHT22;10973;46.706;12.340;2023-12-29T11:31:39;4.00;99.90
21622;DHT22;10973;46.706;12.340;2023-12-29T11:39:27;4.80;99.90
21622;DHT22;10973;46.706;12.340;2023-12-29T11:42:07;6.40;99.90
21622;DHT22;10973;46.706;12.340;2023-12-29T11:44:44;6.40;99.90
21622;DHT22;10973;46.706;12.340;2023-12-29T11:47:34;6.50;99.90
21622;DHT22;10973;46.706;12.340;2023-12-29T11:50:03;6.50;99.90
21622;DHT22;10973;46.706;12.340;2023-12-29T11:52:38;6.30;99.90
21622;DHT22;10973;46.706;12.340;2023-12-29T11:55:12;6.30;99.90
21622;DHT22;10973;46.706;12.340;2023-12-29T11:57:41;5.60;99.90
21622;DHT22;10973;46.706;12.340;2023-12-29T12:00:09;5.20;99.90
21622;DHT22;10973;46.706;12.340;2023-12-29T12:02:38;4.60;99.90
21622;DHT22;10973;46.706;12.340;2023-12-29T12:05:09;4.30;99.90
21622;DHT22;10973;46.706;12.340;2023-12-29T12:12:50;3.80;99.90
21622;DHT22;10973;46.706;12.340;2023-12-29T12:17:55;3.50;99.90
21622;DHT22;10973;46.706;12.340;2023-12-29T12:20:27;3.40;99.90
21622;DHT22;10973;46.706;12.340;2023-12-29T12:23:04;3.40;99.90
21622;DHT22;10973;46.706;12.340;2023-12-29T12:25:45;3.40;99.90
21622;DHT22;10973;46.706;12.340;2023-12-29T12:28:14;3.40;99.90
21622;DHT22;10973;46.706;12.340;2023-12-29T12:30:42;3.30;99.90
21622;DHT22;10973;46.706;12.340;2023-12-29T12:33:13;3.20;99.90
21622;DHT22;10973;46.706;12.340;2023-12-29T12:35:40;3.20;99.90
21622;DHT22;10973;46.706;12.340;2023-12-29T12:38:08;3.10;99.90
21622;DHT22;10973;46.706;12.340;2023-12-29T12:40:40;3.10;99.90
21622;DHT22;10973;46.706;12.340;2023-12-29T12:43:11;3.10;99.90
21622;DHT22;10973;46.706;12.340;2023-12-29T12:46:01;3.00;99.90
21622;DHT22;10973;46.706;12.340;2023-12-29T12:48:39;3.00;99.90
21622;DHT22;10973;46.706;12.340;2023-12-29T12:51:11;3.00;99.90
21622;DHT22;10973;46.706;12.340;2023-12-29T12:53:43;3.00;99.90
21622;DHT22;10973;46.706;12.340;2023-12-29T12:56:11;2.90;99.90
21622;DHT22;10973;46.706;12.340;2023-12-29T12:58:39;2.90;99.90
21622;DHT22;10973;46.706;12.340;2023-12-29T13:01:07;2.90;99.90
21622;DHT22;10973;46.706;12.340;2023-12-29T13:03:38;2.90;99.90
21622;DHT22;10973;46.706;12.340;2023-12-29T13:06:07;2.90;99.90
21622;DHT22;10973;46.706;12.340;2023-12-29T13:08:35;2.90;99.90
21622;DHT22;10973;46.706;12.340;2023-12-29T13:11:10;2.90;99.90
21622;DHT22;10973;46.706;12.340;2023-12-29T13:13:42;2.90;99.90
21622;DHT22;10973;46.706;12.340;2023-12-29T13:16:10;2.90;99.90
21622;DHT22;10973;46.706;12.340;2023-12-29T13:18:38;2.90;99.90
21622;DHT22;10973;46.706;12.340;2023-12-29T13:21:07;2.80;99.90
21622;DHT22;10973;46.706;12.340;2023-12-29T13:23:50;2.90;99.90
21622;DHT22;10973;46.706;12.340;2023-12-29T13:26:18;2.90;99.90
21622;DHT22;10973;46.706;12.340;2023-12-29T13:28:46;2.90;99.90
21622;DHT22;10973;46.706;12.340;2023-12-29T13:31:14;2.90;99.90
21622;DHT22;10973;46.706;12.340;2023-12-29T13:33:59;2.90;99.90
21622;DHT22;10973;46.706;12.340;2023-12-29T13:36:48;2.90;99.90
21622;DHT22;10973;46.706;12.340;2023-12-29T13:39:30;3.00;99.90
21622;DHT22;10973;46.706;12.340;2023-12-29T13:42:11;3.00;99.90
21622;DHT22;10973;46.706;12.340;2023-12-29T13:44:44;2.90;99.90
21622;DHT22;10973;46.706;12.340;2023-12-29T13:47:14;2.90;99.90
21622;DHT22;10973;46.706;12.340;2023-12-29T13:49:42;3.00;99.90
21622;DHT22;10973;46.706;12.340;2023-12-29T13:52:10;2.90;99.90
21622;DHT22;10973;46.706;12.340;2023-12-29T13:54:41;2.90;99.90
21622;DHT22;10973;46.706;12.340;2023-12-29T13:57:10;2.80;99.90
21622;DHT22;10973;46.706;12.340;2023-12-29T13:59:38;2.70;99.90
21622;DHT22;10973;46.706;12.340;2023-12-29T14:02:31;2.70;99.90
21622;DHT22;10973;46.706;12.340;2023-12-29T14:10:45;2.50;99.90
21622;DHT22;10973;46.706;12.340;2023-12-29T14:13:16;2.50;99.90
21622;DHT22;10973;46.706;12.340;2023-12-29T14:15:45;2.40;99.90
21622;DHT22;10973;46.706;12.340;2023-12-29T14:26:37;2.30;99.90
21622;DHT22;10973;46.706;12.340;2023-12-29T14:29:26;2.20;99.90
21622;DHT22;10973;46.706;12.340;2023-12-29T14:32:13;2.20;99.90
21622;DHT22;10973;46.706;12.340;2023-12-29T14:34:40;2.20;99.90
21622;DHT22;10973;46.706;12.340;2023-12-29T14:37:08;2.10;99.90
21622;DHT22;10973;46.706;12.340;2023-12-29T14:39:35;2.10;99.90
21622;DHT22;10973;46.706;12.340;2023-12-29T14:42:03;2.00;99.90
21622;DHT22;10973;46.706;12.340;2023-12-29T14:44:31;2.00;99.90
21622;DHT22;10973;46.706;12.340;2023-12-29T14:46:58;1.90;99.90
21622;DHT22;10973;46.706;12.340;2023-12-29T14:49:26;1.90;99.90
21622;DHT22;10973;46.706;12.340;2023-12-29T14:51:54;1.80;99.90
21622;DHT22;10973;46.706;12.340;2023-12-29T14:54:21;1.80;99.90
21622;DHT22;10973;46.706;12.340;2023-12-29T14:56:49;1.70;99.90
21622;DHT22;10973;46.706;12.340;2023-12-29T14:59:17;1.70;99.90
21622;DHT22;10973;46.706;12.340;2023-12-29T15:01:44;1.60;99.90
21622;DHT22;10973;46.706;12.340;2023-12-29T15:04:12;1.50;99.90
21622;DHT22;10973;46.706;12.340;2023-12-29T15:06:40;1.50;99.90
21622;DHT22;10973;46.706;12.340;2023-12-29T15:09:07;1.50;99.90
21622;DHT22;10973;46.706;12.340;2023-12-29T15:11:35;1.40;99.90
21622;DHT22;10973;46.706;12.340;2023-12-29T15:14:02;1.40;99.90
21622;DHT22;10973;46.706;12.340;2023-12-29T15:16:30;1.30;99.90
21622;DHT22;10973;46.706;12.340;2023-12-29T15:18:57;1.40;99.90
21622;DHT22;10973;46.706;12.340;2023-12-29T15:21:25;1.40;99.90
21622;DHT22;10973;46.706;12.340;2023-12-29T15:23:52;1.30;99.90
21622;DHT22;10973;46.706;12.340;2023-12-29T15:26:20;1.20;99.90
21622;DHT22;10973;46.706;12.340;2023-12-29T15:28:47;1.20;99.90
21622;DHT22;10973;46.706;12.340;2023-12-29T21:02:21;0.90;99.90
21622;DHT22;10973;46.706;12.340;2023-12-29T21:04:49;-1.50;99.90
21622;DHT22;10973;46.706;12.340;2023-12-29T21:07:24;-1.50;99.90
21622;DHT22;10973;46.706;12.340;2023-12-29T21:09:53;-1.50;99.90
21622;DHT22;10973;46.706;12.340;2023-12-29T21:12:23;-1.60;99.90
21622;DHT22;10973;46.706;12.340;2023-12-29T21:14:51;-1.50;99.90
21622;DHT22;10973;46.706;12.340;2023-12-29T21:17:24;-1.40;99.90
21622;DHT22;10973;46.706;12.340;2023-12-29T21:19:51;-1.40;99.90
21622;DHT22;10973;46.706;12.340;2023-12-29T21:22:20;-1.40;99.90
21622;DHT22;10973;46.706;12.340;2023-12-29T21:24:47;-1.30;99.90
21622;DHT22;10973;46.706;12.340;2023-12-29T21:27:15;-1.20;99.90
21622;DHT22;10973;46.706;12.340;2023-12-29T21:29:42;-1.30;99.90
21622;DHT22;10973;46.706;12.340;2023-12-29T21:32:10;-1.30;99.90
21622;DHT22;10973;46.706;12.340;2023-12-29T21:34:38;-1.20;99.90
21622;DHT22;10973;46.706;12.340;2023-12-29T21:37:06;-1.20;99.90
21622;DHT22;10973;46.706;12.340;2023-12-29T21:39:33;-1.30;99.90
21622;DHT22;10973;46.706;12.340;2023-12-29T21:42:01;-1.30;99.90
21622;DHT22;10973;46.706;12.340;2023-12-29T21:44:28;-1.40;99.90
21622;DHT22;10973;46.706;12.340;2023-12-29T21:46:55;-1.40;99.90
21622;DHT22;10973;46.706;12.340;2023-12-29T21:49:23;-1.40;99.90
21622;DHT22;10973;46.706;12.340;2023-12-29T21:51:51;-1.30;99.90
21622;DHT22;10973;46.706;12.340;2023-12-29T21:54:18;-1.40;99.90
21622;DHT22;10973;46.706;12.340;2023-12-29T21:56:46;-1.40;99.90
21622;DHT22;10973;46.706;12.340;2023-12-29T21:59:16;-1.40;99.90
21622;DHT22;10973;46.706;12.340;2023-12-29T22:01:47;-1.40;99.90
21622;DHT22;10973;46.706;12.340;2023-12-29T22:04:17;-1.40;99.90
21622;DHT22;10973;46.706;12.340;2023-12-29T22:06:48;-1.30;99.90
21622;DHT22;10973;46.706;12.340;2023-12-29T22:09:15;-1.30;99.90
21622;DHT22;10973;46.706;12.340;2023-12-29T22:11:43;-1.20;99.90
21622;DHT22;10973;46.706;12.340;2023-12-29T22:14:11;-1.20;99.90
21622;DHT22;10973;46.706;12.340;2023-12-29T22:16:38;-1.20;99.90
21622;DHT22;10973;46.706;12.340;2023-12-29T22:19:06;-1.40;99.90
21622;DHT22;10973;46.706;12.340;2023-12-29T22:21:33;-1.10;99.90
21622;DHT22;10973;46.706;12.340;2023-12-29T22:24:01;-1.10;99.90
21622;DHT22;10973;46.706;12.340;2023-12-29T22:26:28;-1.10;99.90
21622;DHT22;10973;46.706;12.340;2023-12-29T22:28:56;-1.00;99.90
21622;DHT22;10973;46.706;12.340;2023-12-29T22:31:23;-1.00;99.90
21622;DHT22;10973;46.706;12.340;2023-12-29T22:33:51;-1.00;99.90
21622;DHT22;10973;46.706;12.340;2023-12-29T22:36:20;-1.00;99.90
21622;DHT22;10973;46.706;12.340;2023-12-29T22:38:48;-1.10;99.90
21622;DHT22;10973;46.706;12.340;2023-12-29T22:41:20;-1.10;99.90
21622;DHT22;10973;46.706;12.340;2023-12-29T22:43:47;-1.10;99.90
21622;DHT22;10973;46.706;12.340;2023-12-29T22:46:16;-1.20;99.90
21622;DHT22;10973;46.706;12.340;2023-12-29T22:48:51;-1.20;99.90
21622;DHT22;10973;46.706;12.340;2023-12-29T22:51:19;-1.20;99.90
21622;DHT22;10973;46.706;12.340;2023-12-29T22:53:47;-1.30;99.90
21622;DHT22;10973;46.706;12.340;2023-12-29T22:56:15;-1.20;99.90
21622;DHT22;10973;46.706;12.340;2023-12-29T22:58:42;-1.20;99.90
21622;DHT22;10973;46.706;12.340;2023-12-29T23:01:09;-1.20;99.90
21622;DHT22;10973;46.706;12.340;2023-12-29T23:03:37;-1.20;99.90
21622;DHT22;10973;46.706;12.340;2023-12-29T23:06:08;-1.10;99.90
21622;DHT22;10973;46.706;12.340;2023-12-29T23:08:37;-1.20;99.90
21622;DHT22;10973;46.706;12.340;2023-12-29T23:11:05;-1.20;99.90
21622;DHT22;10973;46.706;12.340;2023-12-29T23:13:42;-1.20;99.90
21622;DHT22;10973;46.706;12.340;2023-12-29T23:16:10;-1.10;99.90
21622;DHT22;10973;46.706;12.340;2023-12-29T23:18:45;-1.10;99.90
21622;DHT22;10973;46.706;12.340;2023-12-29T23:21:16;-1.10;99.90
21622;DHT22;10973;46.706;12.340;2023-12-29T23:23:46;-1.10;99.90
21622;DHT22;10973;46.706;12.340;2023-12-29T23:26:14;-1.10;99.90
21622;DHT22;10973;46.706;12.340;2023-12-29T23:28:42;-1.10;99.90